createdAt,value
2022-11-16T00:00:01.557Z,26.00
2022-11-16T00:02:53.669Z,27.10
2022-11-16T00:05:27.023Z,30.30
2022-11-16T00:07:58.032Z,33.10
2022-11-16T00:10:26.126Z,31.80
2022-11-16T00:12:54.222Z,33.50
2022-11-16T00:15:22.427Z,26.60
2022-11-16T00:17:50.562Z,27.70
2022-11-16T00:20:18.869Z,22.40
2022-11-16T00:22:46.983Z,23.80
2022-11-16T00:25:15.105Z,22.70
2022-11-16T00:27:43.194Z,22.30
2022-11-16T00:30:12.124Z,21.00
2022-11-16T00:32:40.259Z,20.60
2022-11-16T00:35:09.198Z,20.50
2022-11-16T00:37:37.305Z,20.90
2022-11-16T00:40:06.980Z,22.60
2022-11-16T00:42:35.051Z,22.20
2022-11-16T00:45:04.203Z,22.30
2022-11-16T00:47:32.327Z,24.30
2022-11-16T00:50:00.529Z,22.80
2022-11-16T00:52:28.675Z,22.50
2022-11-16T00:54:57.286Z,25.90
2022-11-16T00:57:25.567Z,25.80
2022-11-16T00:59:53.973Z,25.90
2022-11-16T01:02:22.427Z,24.40
2022-11-16T01:04:50.675Z,28.00
2022-11-16T01:07:18.853Z,32.30
2022-11-16T01:09:48.726Z,35.90
2022-11-16T01:12:18.494Z,33.00
2022-11-16T01:14:48.011Z,29.40
2022-11-16T01:17:16.219Z,30.00
2022-11-16T01:19:44.368Z,24.10
2022-11-16T01:22:12.678Z,22.60
2022-11-16T01:24:41.248Z,18.80
2022-11-16T01:27:09.471Z,17.10
2022-11-16T01:29:40.908Z,15.60
2022-11-16T01:32:09.155Z,15.10
2022-11-16T01:34:38.188Z,16.60
2022-11-16T01:37:21.363Z,15.90
2022-11-16T01:39:51.243Z,15.50
2022-11-16T01:42:25.866Z,15.20
2022-11-16T01:45:01.393Z,15.10
2022-11-16T01:47:29.946Z,14.40
2022-11-16T01:50:13.302Z,14.80
2022-11-16T01:52:54.409Z,15.40
2022-11-16T01:55:24.095Z,14.60
2022-11-16T01:58:42.327Z,14.50
2022-11-16T02:01:24.625Z,15.10
2022-11-16T02:03:54.515Z,14.70
2022-11-16T02:07:23.572Z,15.90
2022-11-16T02:10:35.670Z,15.70
2022-11-16T02:13:22.585Z,17.30
2022-11-16T02:16:46.976Z,16.30
2022-11-16T02:19:54.808Z,15.70
2022-11-16T02:22:57.701Z,15.20
2022-11-16T02:25:53.831Z,15.40
2022-11-16T02:28:50.272Z,17.20
2022-11-16T02:31:30.603Z,19.30
2022-11-16T02:34:00.848Z,17.20
2022-11-16T02:36:28.996Z,17.90
2022-11-16T02:39:10.610Z,17.80
2022-11-16T02:41:42.988Z,14.60
2022-11-16T02:44:46.558Z,14.60
2022-11-16T02:47:22.298Z,17.10
2022-11-16T02:50:00.448Z,16.20
2022-11-16T02:52:29.520Z,16.70
2022-11-16T02:54:57.982Z,15.50
2022-11-16T02:57:34.978Z,16.90
2022-11-16T03:00:06.606Z,15.50
2022-11-16T03:03:14.350Z,15.20
2022-11-16T03:05:58.501Z,16.60
2022-11-16T03:08:36.580Z,16.50
2022-11-16T03:11:27.800Z,15.00
2022-11-16T03:14:02.650Z,15.20
2022-11-16T03:16:44.847Z,16.40
2022-11-16T03:19:23.904Z,17.10
2022-11-16T03:22:18.389Z,18.10
2022-11-16T03:24:47.502Z,18.60
2022-11-16T03:27:30.289Z,17.90
2022-11-16T03:30:13.838Z,17.70
2022-11-16T03:33:22.249Z,18.30
2022-11-16T03:36:33.883Z,15.80
2022-11-16T03:39:10.660Z,19.60
2022-11-16T03:41:44.314Z,20.00
2022-11-16T03:44:15.371Z,22.50
2022-11-16T03:46:45.555Z,20.70
2022-11-16T03:49:14.479Z,19.50
2022-11-16T03:51:43.363Z,22.20
2022-11-16T03:54:11.600Z,22.90
2022-11-16T03:56:40.121Z,23.40
2022-11-16T03:59:09.423Z,22.10
2022-11-16T04:01:43.272Z,22.20
2022-11-16T04:04:33.859Z,22.30
2022-11-16T04:07:20.904Z,19.40
2022-11-16T04:10:07.900Z,17.80
2022-11-16T04:12:55.040Z,20.70
2022-11-16T04:15:41.714Z,18.40
2022-11-16T04:18:29.172Z,20.20
2022-11-16T04:21:15.795Z,20.50
2022-11-16T04:24:03.487Z,20.50
2022-11-16T04:26:53.272Z,21.50
2022-11-16T04:29:21.474Z,22.80
2022-11-16T04:32:08.701Z,20.10
2022-11-16T04:34:55.342Z,19.70
2022-11-16T04:37:42.775Z,20.80
2022-11-16T04:40:12.290Z,20.90
2022-11-16T04:42:40.428Z,22.50
2022-11-16T04:45:29.009Z,19.60
2022-11-16T04:47:57.217Z,21.50
2022-11-16T04:50:28.552Z,20.30
2022-11-16T04:52:57.188Z,22.10
2022-11-16T04:55:25.429Z,22.50
2022-11-16T04:57:54.394Z,22.40
2022-11-16T05:00:23.195Z,22.90
2022-11-16T05:02:52.423Z,21.20
2022-11-16T05:05:23.354Z,21.30
2022-11-16T05:07:52.877Z,20.90
2022-11-16T05:10:25.237Z,20.30
2022-11-16T05:12:53.776Z,20.20
2022-11-16T05:15:22.292Z,21.10
2022-11-16T05:17:51.461Z,21.50
2022-11-16T05:20:41.176Z,22.60
2022-11-16T05:23:29.487Z,23.10
2022-11-16T05:25:59.785Z,22.30
2022-11-16T05:28:28.567Z,22.50
2022-11-16T05:30:56.983Z,21.60
2022-11-16T05:33:25.181Z,23.40
2022-11-16T05:35:53.440Z,25.70
2022-11-16T05:38:22.421Z,25.30
2022-11-16T05:40:53.428Z,22.90
2022-11-16T05:43:21.812Z,22.80
2022-11-16T05:45:59.957Z,20.90
2022-11-16T05:48:28.236Z,24.10
2022-11-16T05:51:00.534Z,23.40
2022-11-16T05:53:30.558Z,22.10
2022-11-16T05:56:27.594Z,23.30
2022-11-16T05:59:06.040Z,23.60
2022-11-16T06:01:34.490Z,27.00
2022-11-16T06:04:04.379Z,32.00
2022-11-16T06:06:32.899Z,36.80
2022-11-16T06:09:03.263Z,34.30
2022-11-16T06:11:36.037Z,30.10
2022-11-16T06:16:34.784Z,27.80
2022-11-16T06:19:04.580Z,22.90
2022-11-16T06:21:33.137Z,22.90
2022-11-16T06:24:08.865Z,24.80
2022-11-16T06:26:37.439Z,21.20
2022-11-16T06:29:05.833Z,21.50
2022-11-16T06:31:34.736Z,23.40
2022-11-16T06:34:03.998Z,24.50
2022-11-16T06:36:32.137Z,25.80
2022-11-16T06:39:03.725Z,26.90
2022-11-16T06:41:40.180Z,31.30
2022-11-16T06:44:10.243Z,32.70
2022-11-16T06:46:39.558Z,32.60
2022-11-16T06:49:07.713Z,34.10
2022-11-16T06:51:36.145Z,36.70
2022-11-16T06:54:06.393Z,32.30
2022-11-16T06:56:35.522Z,31.10
2022-11-16T06:59:03.986Z,30.30
2022-11-16T07:01:32.250Z,30.30
2022-11-16T07:04:04.983Z,30.50
2022-11-16T07:06:33.245Z,32.50
2022-11-16T07:09:01.760Z,212.40
2022-11-16T07:11:31.849Z,265.00
2022-11-16T07:14:00.747Z,95.80
2022-11-16T07:16:29.746Z,56.70
2022-11-16T07:19:00.819Z,52.30
2022-11-16T07:21:30.836Z,42.80
2022-11-16T07:23:59.406Z,36.20
2022-11-16T07:26:28.940Z,31.50
2022-11-16T07:29:01.766Z,28.50
2022-11-16T07:31:30.921Z,30.50
2022-11-16T07:34:54.284Z,29.60
2022-11-16T07:37:22.591Z,31.20
2022-11-16T07:39:50.875Z,30.50
2022-11-16T07:42:19.028Z,27.30
2022-11-16T07:45:16.458Z,28.30
2022-11-16T07:47:53.338Z,38.80
2022-11-16T07:51:08.703Z,37.50
2022-11-16T07:53:41.834Z,42.70
2022-11-16T07:56:11.767Z,51.30
2022-11-16T07:58:41.368Z,64.80
2022-11-16T08:01:15.994Z,61.80
2022-11-16T08:03:46.722Z,44.50
2022-11-16T08:06:23.823Z,34.10
2022-11-16T08:08:57.802Z,31.60
2022-11-16T08:11:27.259Z,31.00
2022-11-16T08:13:57.540Z,29.90
2022-11-16T08:16:25.827Z,26.30
2022-11-16T08:19:01.273Z,26.10
2022-11-16T08:21:29.818Z,25.10
2022-11-16T08:23:58.854Z,31.20
2022-11-16T08:26:27.797Z,30.50
2022-11-16T08:29:00.442Z,32.60
2022-11-16T08:31:31.538Z,32.00
2022-11-16T08:34:18.397Z,32.30
2022-11-16T08:36:48.536Z,31.00
2022-11-16T08:39:18.965Z,30.20
2022-11-16T08:41:47.132Z,25.10
2022-11-16T08:44:16.059Z,30.70
2022-11-16T08:46:47.636Z,32.00
2022-11-16T08:49:29.210Z,27.30
2022-11-16T08:51:57.875Z,26.90
2022-11-16T08:54:29.821Z,22.30
2022-11-16T08:56:58.241Z,24.30
2022-11-16T08:59:26.790Z,23.30
2022-11-16T09:01:57.220Z,23.70
2022-11-16T09:04:25.544Z,22.50
2022-11-16T09:06:54.897Z,21.90
2022-11-16T09:09:23.237Z,19.80
2022-11-16T09:11:53.704Z,18.20
2022-11-16T09:14:22.007Z,19.40
2022-11-16T09:16:50.445Z,17.50
2022-11-16T09:19:19.004Z,16.60
2022-11-16T09:21:47.105Z,15.50
2022-11-16T09:24:15.186Z,15.80
2022-11-16T09:26:43.938Z,16.70
2022-11-16T09:29:14.570Z,19.60
2022-11-16T09:31:42.757Z,17.90
2022-11-16T09:34:11.401Z,17.00
2022-11-16T09:36:39.615Z,21.70
2022-11-16T09:39:29.615Z,19.60
2022-11-16T09:42:04.621Z,19.80
2022-11-16T09:45:12.417Z,18.50
2022-11-16T09:47:50.523Z,20.30
2022-11-16T09:50:43.422Z,18.90
2022-11-16T09:53:25.911Z,17.70
2022-11-16T09:55:58.594Z,21.10
2022-11-16T09:58:40.830Z,20.90
2022-11-16T10:01:41.458Z,20.20
2022-11-16T10:04:36.540Z,19.10
2022-11-16T10:07:43.629Z,21.30
2022-11-16T10:10:18.068Z,20.30
2022-11-16T10:13:03.202Z,20.90
2022-11-16T10:16:12.905Z,21.80
2022-11-16T10:19:03.377Z,24.20
2022-11-16T10:22:02.182Z,24.70
2022-11-16T10:24:42.339Z,20.90
2022-11-16T10:27:28.514Z,20.50
2022-11-16T10:30:10.094Z,20.50
2022-11-16T10:33:09.656Z,21.00
2022-11-16T10:35:45.550Z,21.30
2022-11-16T10:38:18.490Z,17.50
2022-11-16T10:40:52.479Z,17.10
2022-11-16T10:43:25.659Z,16.60
2022-11-16T10:49:03.074Z,20.40
2022-11-16T10:51:31.350Z,18.40
2022-11-16T10:53:59.521Z,17.20
2022-11-16T10:56:40.565Z,17.20
2022-11-16T10:59:14.427Z,15.20
2022-11-16T11:01:49.942Z,18.60
2022-11-16T11:04:23.678Z,17.50
2022-11-16T11:07:22.011Z,16.50
2022-11-16T11:09:55.086Z,18.50
2022-11-16T11:12:38.114Z,16.90
2022-11-16T11:15:12.116Z,19.70
2022-11-16T11:17:47.290Z,20.00
2022-11-16T11:20:15.386Z,19.50
2022-11-16T11:22:58.663Z,20.10
2022-11-16T11:25:32.902Z,18.90
2022-11-16T11:28:46.599Z,22.50
2022-11-16T11:31:45.150Z,18.00
2022-11-16T11:34:22.801Z,19.40
2022-11-16T11:37:21.742Z,19.50
2022-11-16T11:40:17.563Z,18.50
2022-11-16T11:42:56.492Z,20.00
2022-11-16T11:45:36.476Z,20.30
2022-11-16T11:48:22.569Z,20.40
2022-11-16T11:50:56.114Z,20.10
2022-11-16T11:53:44.399Z,20.50
2022-11-16T11:56:14.202Z,22.10
2022-11-16T11:58:44.174Z,22.10
2022-11-16T12:01:41.027Z,20.80
2022-11-16T12:04:43.010Z,21.70
2022-11-16T12:07:37.160Z,22.10
2022-11-16T12:10:32.588Z,21.00
2022-11-16T12:13:18.603Z,22.10
2022-11-16T12:16:11.417Z,23.20
2022-11-16T12:18:50.226Z,23.40
2022-11-16T12:21:49.952Z,20.60
2022-11-16T12:25:02.226Z,22.70
2022-11-16T12:28:04.421Z,20.00
2022-11-16T12:30:47.317Z,19.80
2022-11-16T12:34:01.351Z,19.20
2022-11-16T12:37:07.718Z,19.50
2022-11-16T12:39:45.545Z,17.40
2022-11-16T12:42:41.051Z,18.30
2022-11-16T12:45:36.022Z,17.90
2022-11-16T12:48:26.011Z,16.20
2022-11-16T12:51:03.106Z,18.70
2022-11-16T12:53:52.698Z,19.00
2022-11-16T12:56:39.216Z,18.60
2022-11-16T12:59:35.369Z,19.90
2022-11-16T13:02:10.802Z,18.10
2022-11-16T13:04:50.752Z,18.00
2022-11-16T13:07:31.786Z,19.00
2022-11-16T13:10:17.252Z,20.30
2022-11-16T13:12:52.706Z,25.20
2022-11-16T13:15:34.976Z,25.00
2022-11-16T13:18:07.950Z,28.90
2022-11-16T13:20:43.892Z,22.00
2022-11-16T13:23:37.526Z,21.40
2022-11-16T13:29:17.956Z,36.90
2022-11-16T13:31:58.312Z,27.10
2022-11-16T13:34:32.838Z,23.30
2022-11-16T13:37:01.012Z,23.10
2022-11-16T13:39:50.869Z,26.10
2022-11-16T13:42:19.109Z,19.20
2022-11-16T13:44:51.529Z,21.80
2022-11-16T13:47:28.674Z,17.50
2022-11-16T13:50:03.496Z,17.10
2022-11-16T13:53:57.703Z,18.30
2022-11-16T13:55:59.168Z,18.30
2022-11-16T13:58:29.958Z,20.20
2022-11-16T14:01:07.475Z,22.40
2022-11-16T14:03:40.931Z,20.70
2022-11-16T14:06:24.213Z,21.00
2022-11-16T14:08:55.221Z,19.10
2022-11-16T14:11:40.512Z,21.00
2022-11-16T14:15:03.954Z,18.20
2022-11-16T14:18:08.718Z,20.50
2022-11-16T14:20:57.224Z,19.60
2022-11-16T14:24:13.788Z,20.30
2022-11-16T14:27:07.695Z,18.40
2022-11-16T14:30:05.805Z,18.70
2022-11-16T14:32:43.318Z,21.00
2022-11-16T14:35:28.857Z,23.50
2022-11-16T14:38:06.486Z,21.80
2022-11-16T14:40:46.468Z,22.50
2022-11-16T14:43:29.795Z,17.00
2022-11-16T14:46:09.474Z,22.50
2022-11-16T14:48:46.019Z,26.60
2022-11-16T14:51:33.043Z,20.30
2022-11-16T14:54:11.612Z,20.80
2022-11-16T14:57:00.002Z,20.40
2022-11-16T14:59:30.536Z,21.30
2022-11-16T15:02:05.991Z,53.50
2022-11-16T15:04:34.259Z,21.60
2022-11-16T15:07:05.205Z,26.10
2022-11-16T15:09:39.236Z,44.50
2022-11-16T15:12:35.242Z,38.20
2022-11-16T15:15:15.488Z,21.30
2022-11-16T15:17:51.733Z,17.50
2022-11-16T15:20:26.160Z,21.10
2022-11-16T15:22:58.312Z,24.40
2022-11-16T15:25:43.207Z,30.20
2022-11-16T15:28:26.422Z,28.10
2022-11-16T15:31:06.533Z,25.50
2022-11-16T15:33:42.590Z,26.50
2022-11-16T15:36:39.047Z,22.70
2022-11-16T15:39:18.813Z,29.10
2022-11-16T15:41:47.576Z,27.50
2022-11-16T15:44:20.350Z,19.70
2022-11-16T15:46:53.260Z,23.90
2022-11-16T15:49:33.838Z,19.60
2022-11-16T15:52:02.552Z,23.20
2022-11-16T15:55:14.467Z,22.10
2022-11-16T15:57:46.438Z,21.30
2022-11-16T16:00:23.078Z,22.80
2022-11-16T16:02:51.827Z,22.10
2022-11-16T16:05:32.652Z,21.90
2022-11-16T16:08:00.855Z,99.30
2022-11-16T16:10:29.415Z,83.80
2022-11-16T16:13:02.365Z,35.60
2022-11-16T16:15:36.060Z,27.60
2022-11-16T16:18:36.851Z,18.60
2022-11-16T16:21:05.096Z,19.00
2022-11-16T16:23:33.628Z,22.00
2022-11-16T16:26:05.196Z,21.30
2022-11-16T16:28:33.335Z,21.10
2022-11-16T16:31:01.802Z,22.10
2022-11-16T16:33:30.213Z,24.50
2022-11-16T16:35:58.333Z,48.00
2022-11-16T16:38:26.506Z,89.00
2022-11-16T16:41:03.675Z,41.80
2022-11-16T16:43:32.765Z,29.20
2022-11-16T16:46:03.003Z,28.10
2022-11-16T16:48:31.227Z,25.00
2022-11-16T16:50:59.368Z,21.00
2022-11-16T16:53:27.497Z,22.70
2022-11-16T16:55:55.676Z,22.40
2022-11-16T16:58:23.863Z,21.50
2022-11-16T17:00:56.951Z,25.60
2022-11-16T17:03:28.105Z,27.40
2022-11-16T17:06:03.095Z,23.50
2022-11-16T17:08:39.000Z,21.70
2022-11-16T17:11:07.177Z,22.20
2022-11-16T17:13:35.719Z,20.20
2022-11-16T17:16:05.961Z,23.60
2022-11-16T17:18:34.131Z,22.10
2022-11-16T17:21:07.860Z,22.90
2022-11-16T17:23:37.416Z,23.90
2022-11-16T17:26:08.399Z,27.60
2022-11-16T17:28:36.685Z,28.70
2022-11-16T17:31:10.699Z,27.40
2022-11-16T17:33:42.142Z,27.50
2022-11-16T17:36:14.326Z,24.50
2022-11-16T17:38:42.587Z,25.40
2022-11-16T17:41:24.090Z,24.80
2022-11-16T17:43:54.376Z,25.40
2022-11-16T17:46:25.738Z,23.40
2022-11-16T17:48:53.833Z,27.80
2022-11-16T17:51:25.144Z,28.30
2022-11-16T17:53:53.562Z,28.90
2022-11-16T17:56:26.132Z,26.90
2022-11-16T17:58:56.065Z,25.80
2022-11-16T18:01:25.422Z,26.70
2022-11-16T18:03:53.842Z,26.60
2022-11-16T18:06:25.179Z,28.40
2022-11-16T18:08:53.612Z,28.30
2022-11-16T18:11:25.101Z,27.50
2022-11-16T18:13:56.058Z,25.80
2022-11-16T18:16:27.841Z,26.00
2022-11-16T18:19:02.154Z,27.90
2022-11-16T18:21:31.347Z,28.20
2022-11-16T18:24:00.210Z,28.50
2022-11-16T18:26:28.347Z,27.90
2022-11-16T18:28:56.514Z,27.60
2022-11-16T18:31:25.407Z,28.70
2022-11-16T18:33:53.500Z,28.80
2022-11-16T18:36:22.844Z,27.50
2022-11-16T18:38:51.153Z,25.00
2022-11-16T18:41:29.279Z,24.60
2022-11-16T18:44:02.124Z,25.00
2022-11-16T18:46:32.677Z,25.10
2022-11-16T18:49:01.030Z,22.60
2022-11-16T18:51:29.707Z,25.20
2022-11-16T18:53:58.003Z,25.00
2022-11-16T18:56:27.261Z,21.90
2022-11-16T18:58:55.400Z,21.50
2022-11-16T19:01:27.496Z,22.00
2022-11-16T19:03:56.522Z,19.70
2022-11-16T19:06:24.639Z,20.50
2022-11-16T19:08:59.611Z,18.20
2022-11-16T19:11:28.807Z,18.20
2022-11-16T19:14:00.797Z,17.80
2022-11-16T19:16:29.415Z,21.30
2022-11-16T19:18:57.548Z,20.60
2022-11-16T19:21:25.769Z,21.30
2022-11-16T19:23:56.156Z,20.60
2022-11-16T19:26:27.111Z,20.00
2022-11-16T19:28:55.726Z,19.90
2022-11-16T19:31:29.894Z,19.60
2022-11-16T19:34:05.095Z,21.70
2022-11-16T19:36:36.325Z,21.00
2022-11-16T19:39:06.002Z,20.80
2022-11-16T19:41:34.120Z,21.20
2022-11-16T19:44:02.410Z,20.80
2022-11-16T19:46:33.215Z,20.30
2022-11-16T19:49:01.811Z,20.70
2022-11-16T19:51:33.038Z,19.40
2022-11-16T19:54:02.724Z,20.20
2022-11-16T19:56:31.221Z,21.40
2022-11-16T19:59:00.411Z,21.30
2022-11-16T20:01:29.391Z,21.70
2022-11-16T20:04:03.457Z,21.00
2022-11-16T20:06:35.410Z,21.40
2022-11-16T20:09:09.415Z,23.10
2022-11-16T20:11:40.179Z,22.60
2022-11-16T20:14:11.951Z,23.70
2022-11-16T20:16:43.226Z,21.70
2022-11-16T20:19:11.710Z,23.10
2022-11-16T20:21:42.862Z,24.20
2022-11-16T20:35:17.758Z,22.40
2022-11-16T20:37:47.700Z,20.00
2022-11-16T20:40:15.933Z,19.80
2022-11-16T20:42:44.022Z,22.60
2022-11-16T20:45:12.137Z,19.40
2022-11-16T20:47:40.226Z,20.30
2022-11-16T20:50:08.891Z,20.60
2022-11-16T20:52:42.290Z,19.10
2022-11-16T20:55:11.676Z,19.40
2022-11-16T20:57:39.803Z,20.80
2022-11-16T21:00:08.855Z,18.90
2022-11-16T21:02:36.980Z,20.30
2022-11-16T21:05:05.775Z,18.60
2022-11-16T21:07:34.544Z,20.60
2022-11-16T21:10:21.016Z,19.50
2022-11-16T21:13:08.049Z,20.50
2022-11-16T21:15:36.214Z,22.00
2022-11-16T21:18:04.554Z,18.80
2022-11-16T21:20:32.686Z,19.20
2022-11-16T21:23:00.825Z,19.00
2022-11-16T21:25:29.077Z,20.30
2022-11-16T21:27:57.197Z,18.50
2022-11-16T21:30:25.321Z,18.40
2022-11-16T21:32:53.429Z,18.30
2022-11-16T21:35:21.601Z,18.00
2022-11-16T21:37:49.710Z,19.00
2022-11-16T21:40:17.849Z,19.80
2022-11-16T21:42:47.550Z,19.20
2022-11-16T21:45:15.661Z,18.60
2022-11-16T21:47:43.783Z,18.10
2022-11-16T21:53:00.730Z,18.50
2022-11-16T21:55:29.058Z,18.80
2022-11-16T21:58:00.826Z,19.20
2022-11-16T22:00:29.782Z,17.00
2022-11-16T22:02:57.917Z,19.80
2022-11-16T22:05:44.835Z,18.50
2022-11-16T22:08:12.989Z,19.80
2022-11-16T22:10:41.169Z,19.40
2022-11-16T22:13:09.265Z,19.20
2022-11-16T22:15:37.358Z,19.90
2022-11-16T22:18:05.746Z,18.60
2022-11-16T22:20:34.112Z,18.00
2022-11-16T22:23:02.232Z,18.30
2022-11-16T22:25:30.387Z,18.80
2022-11-16T22:28:19.800Z,17.20
2022-11-16T22:30:51.362Z,18.70
2022-11-16T22:33:20.646Z,20.40
2022-11-16T22:35:48.764Z,18.80
2022-11-16T22:38:16.870Z,18.40
2022-11-16T22:40:52.797Z,18.20
2022-11-16T22:43:31.351Z,17.00
2022-11-16T22:46:02.565Z,16.80
2022-11-16T22:48:36.569Z,17.60
2022-11-16T22:51:19.603Z,17.30
2022-11-16T22:53:51.965Z,17.40
2022-11-16T22:56:20.162Z,17.10
2022-11-16T22:58:48.335Z,16.50
2022-11-16T23:01:16.760Z,16.90
2022-11-16T23:03:45.139Z,15.40
2022-11-16T23:06:13.675Z,14.40
2022-11-16T23:08:41.972Z,16.20
2022-11-16T23:11:38.141Z,16.20
2022-11-16T23:14:29.595Z,15.20
2022-11-16T23:16:58.057Z,16.90
2022-11-16T23:19:45.298Z,15.00
2022-11-16T23:22:39.003Z,15.30
2022-11-16T23:28:06.736Z,13.30
2022-11-16T23:30:36.776Z,13.00
2022-11-16T23:33:04.862Z,13.40
2022-11-16T23:35:33.523Z,14.80
2022-11-16T23:38:06.482Z,14.20
2022-11-16T23:40:40.067Z,13.80
2022-11-16T23:43:28.789Z,14.50
2022-11-16T23:45:57.024Z,13.30
2022-11-16T23:48:25.169Z,13.80
2022-11-16T23:50:53.291Z,14.60
2022-11-16T23:53:21.472Z,15.60
2022-11-16T23:55:49.613Z,15.70
2022-11-16T23:58:17.701Z,15.40
